Time;durP1;ratioP1;P1;durP2;ratioP2;P2;SDS_P1;SDS_P2;PMS_P1;PMS_P2;Temp;Humidity;BMP_temperature;BMP_pressure;BME280_temperature;BME280_humidity;BME280_pressure;Samples;Min_cycle;Max_cycle;Signal;HPM_P1;HPM_P2
2024/03/06 00:00:35;;;;;;;16.15;13.48;;;10.90;79.90;;;;;;5048097;28;20030;-81
2024/03/06 00:03:01;;;;;;;17.80;14.32;;;10.90;79.90;;;;;;5013190;28;20030;-88
2024/03/06 00:05:27;;;;;;;15.85;12.82;;;10.90;79.90;;;;;;5027125;28;20117;-95
2024/03/06 00:07:52;;;;;;;16.80;13.77;;;10.90;79.90;;;;;;5023445;28;20015;-79
2024/03/06 00:10:18;;;;;;;15.88;13.77;;;10.90;79.90;;;;;;5008773;28;20053;-88
2024/03/06 00:12:44;;;;;;;16.15;13.50;;;11.00;79.90;;;;;;5047418;28;20033;-79
2024/03/06 00:15:10;;;;;;;16.30;14.27;;;10.90;79.90;;;;;;5011050;28;20034;-88
2024/03/06 00:17:35;;;;;;;15.88;14.18;;;10.90;79.90;;;;;;5006165;28;20026;-79
2024/03/06 00:20:05;;;;;;;15.75;13.23;;;10.90;79.90;;;;;;5026111;28;20037;-81
2024/03/06 00:22:35;;;;;;;17.05;13.82;;;10.90;80.00;;;;;;5038996;28;20044;-89
2024/03/06 00:25:02;;;;;;;15.73;13.43;;;10.90;80.00;;;;;;5048066;28;20026;-80
2024/03/06 00:27:28;;;;;;;15.35;13.20;;;10.90;80.00;;;;;;5021648;28;20026;-94
2024/03/06 00:29:54;;;;;;;14.38;12.75;;;10.90;80.00;;;;;;5021204;28;20049;-96
2024/03/06 00:32:19;;;;;;;16.73;14.25;;;10.90;80.00;;;;;;5009636;28;20029;-95
2024/03/06 00:34:45;;;;;;;17.20;14.02;;;10.90;80.00;;;;;;5023659;28;20100;-95
2024/03/06 00:37:11;;;;;;;17.70;15.68;;;10.80;79.90;;;;;;5031802;28;20029;-79
2024/03/06 00:39:37;;;;;;;16.73;14.02;;;10.80;79.90;;;;;;5034800;28;20068;-89
2024/03/06 00:42:03;;;;;;;16.52;14.48;;;10.90;80.00;;;;;;5019069;28;20045;-80
2024/03/06 00:44:28;;;;;;;16.40;14.38;;;10.80;79.90;;;;;;5020419;28;20026;-95
2024/03/06 00:46:55;;;;;;;16.98;14.75;;;10.80;80.00;;;;;;5030129;28;20481;-79
2024/03/06 00:49:24;;;;;;;16.45;14.27;;;10.80;80.00;;;;;;5020013;28;20028;-94
2024/03/06 00:51:50;;;;;;;18.23;15.43;;;10.80;80.00;;;;;;5026102;28;20026;-79
2024/03/06 00:54:16;;;;;;;16.27;14.45;;;10.80;80.00;;;;;;5017384;28;20065;-79
2024/03/06 00:56:41;;;;;;;15.10;13.50;;;10.80;80.00;;;;;;5034956;28;20085;-80
2024/03/06 00:59:07;;;;;;;17.95;15.32;;;10.70;80.00;;;;;;5024676;28;20054;-81
2024/03/06 01:01:33;;;;;;;17.63;14.88;;;10.70;80.00;;;;;;5018652;28;20485;-96
2024/03/06 01:03:59;;;;;;;17.77;15.25;;;10.70;79.90;;;;;;5046687;28;20076;-79
2024/03/06 01:06:25;;;;;;;18.65;15.90;;;10.70;80.00;;;;;;5046650;28;20029;-96
2024/03/06 01:08:51;;;;;;;16.27;14.57;;;10.70;80.00;;;;;;5000061;28;20117;-96
2024/03/06 01:11:19;;;;;;;18.65;15.02;;;10.70;80.00;;;;;;5037315;28;20062;-95
2024/03/06 01:13:45;;;;;;;17.42;15.00;;;10.70;80.00;;;;;;5021622;28;20060;-94
2024/03/06 01:16:11;;;;;;;18.27;15.77;;;10.70;80.00;;;;;;5030262;28;20033;-78
2024/03/06 01:18:37;;;;;;;17.48;15.27;;;10.60;79.90;;;;;;5047571;28;20026;-79
2024/03/06 01:21:03;;;;;;;18.50;16.10;;;10.60;79.90;;;;;;5012931;28;20092;-80
2024/03/06 01:23:29;;;;;;;17.80;14.63;;;10.60;80.00;;;;;;5002544;28;20032;-80
2024/03/06 01:25:55;;;;;;;18.52;15.60;;;10.60;80.00;;;;;;5028116;28;20026;-88
2024/03/06 01:28:20;;;;;;;18.17;15.25;;;10.60;80.00;;;;;;5026780;28;20022;-79
2024/03/06 01:30:47;;;;;;;17.17;14.90;;;10.50;79.90;;;;;;5028740;28;20066;-89
2024/03/06 01:33:13;;;;;;;18.05;15.43;;;10.50;80.00;;;;;;5015273;28;20065;-79
2024/03/06 01:35:38;;;;;;;17.63;15.15;;;10.50;80.00;;;;;;5001446;28;20036;-96
2024/03/06 01:38:04;;;;;;;17.33;15.38;;;10.50;80.00;;;;;;5031936;28;20068;-88
2024/03/06 01:40:31;;;;;;;17.95;15.55;;;10.40;79.90;;;;;;5023523;28;20030;-88
2024/03/06 01:42:57;;;;;;;17.85;16.00;;;10.40;79.90;;;;;;5029986;28;20080;-80
2024/03/06 01:45:22;;;;;;;17.65;15.23;;;10.40;80.00;;;;;;5025554;28;20038;-92
2024/03/06 01:47:50;;;;;;;19.58;16.25;;;10.40;80.00;;;;;;5015845;28;20022;-88
2024/03/06 01:50:16;;;;;;;18.80;16.42;;;10.40;80.00;;;;;;5006004;28;20034;-81
2024/03/06 01:52:43;;;;;;;18.55;16.10;;;10.40;80.00;;;;;;5008696;28;20032;-83
2024/03/06 01:55:10;;;;;;;19.15;16.73;;;10.30;80.00;;;;;;5028713;28;20096;-78
2024/03/06 01:57:37;;;;;;;18.92;16.15;;;10.30;80.00;;;;;;5045931;28;20029;-80
2024/03/06 02:00:04;;;;;;;19.33;16.55;;;10.30;80.00;;;;;;5006069;28;20040;-88
2024/03/06 02:02:30;;;;;;;18.70;16.05;;;10.30;80.00;;;;;;5045402;28;20060;-88
2024/03/06 02:05:02;;;;;;;17.85;15.43;;;10.30;80.00;;;;;;5006533;28;20034;-79
2024/03/06 02:07:32;;;;;;;18.58;15.40;;;10.30;80.00;;;;;;4991748;28;20160;-89
2024/03/06 02:09:58;;;;;;;20.00;16.10;;;10.20;80.00;;;;;;5031570;28;20022;-79
2024/03/06 02:12:24;;;;;;;20.60;16.05;;;10.20;80.00;;;;;;5033296;28;20030;-88
2024/03/06 02:14:49;;;;;;;18.02;15.77;;;10.20;80.00;;;;;;5011180;28;20042;-88
2024/03/06 02:17:16;;;;;;;18.50;15.95;;;10.20;79.90;;;;;;5028563;28;20391;-88
2024/03/06 02:19:43;;;;;;;17.80;15.45;;;10.10;79.90;;;;;;5009918;28;20109;-80
2024/03/06 02:22:10;;;;;;;17.50;15.10;;;10.20;80.00;;;;;;5030136;28;20037;-79
2024/03/06 02:24:37;;;;;;;19.20;16.30;;;10.10;80.00;;;;;;5039336;28;20056;-79
2024/03/06 02:27:06;;;;;;;17.85;15.20;;;10.10;79.90;;;;;;5026479;28;20044;-79
2024/03/06 02:29:33;;;;;;;19.08;16.42;;;10.10;79.90;;;;;;5018970;28;20030;-92
2024/03/06 02:31:59;;;;;;;18.45;16.02;;;10.10;79.90;;;;;;5019029;28;20390;-94
2024/03/06 02:34:25;;;;;;;17.52;15.65;;;10.00;80.50;;;;;;4997781;28;20029;-81
2024/03/06 02:36:52;;;;;;;17.25;15.38;;;10.00;79.90;;;;;;5027169;28;20018;-79
2024/03/06 02:39:17;;;;;;;17.30;15.25;;;10.00;79.90;;;;;;5008470;28;20076;-79
2024/03/06 02:41:44;;;;;;;18.13;15.48;;;10.00;79.90;;;;;;5028093;28;20038;-95
2024/03/06 02:44:09;;;;;;;17.50;15.60;;;10.00;79.90;;;;;;5011164;28;20042;-79
2024/03/06 02:46:35;;;;;;;19.95;16.42;;;9.90;79.80;;;;;;5014201;28;20041;-94
2024/03/06 02:49:05;;;;;;;19.50;16.25;;;9.90;79.90;;;;;;5014777;28;20026;-96
2024/03/06 02:51:31;;;;;;;18.30;15.20;;;9.90;79.80;;;;;;5036191;28;20033;-96
2024/03/06 02:53:57;;;;;;;17.42;15.05;;;9.90;79.80;;;;;;5048168;28;20036;-96
2024/03/06 02:56:23;;;;;;;18.38;16.35;;;9.80;79.80;;;;;;5010067;28;20046;-88
2024/03/06 02:58:49;;;;;;;18.50;15.90;;;9.80;79.80;;;;;;5010886;28;20030;-88
2024/03/06 03:01:15;;;;;;;16.77;14.95;;;9.80;79.80;;;;;;5028095;28;20038;-94
2024/03/06 03:03:44;;;;;;;16.00;14.30;;;9.80;79.80;;;;;;4999457;28;20037;-81
2024/03/06 03:06:10;;;;;;;18.05;15.07;;;9.80;79.80;;;;;;5009373;28;20030;-95
2024/03/06 03:08:37;;;;;;;18.80;15.90;;;9.80;79.80;;;;;;5028257;28;20098;-88
2024/03/06 03:11:03;;;;;;;18.77;15.18;;;9.80;79.80;;;;;;5032139;28;20065;-88
2024/03/06 03:13:30;;;;;;;17.67;15.25;;;9.70;79.80;;;;;;5027188;28;20498;-79
2024/03/06 03:15:56;;;;;;;17.08;14.70;;;9.70;79.80;;;;;;5042322;28;20056;-80
2024/03/06 03:18:22;;;;;;;17.80;15.02;;;9.70;79.80;;;;;;5012355;28;20101;-88
2024/03/06 03:20:48;;;;;;;17.77;14.77;;;9.70;79.80;;;;;;5026680;28;20105;-79
2024/03/06 03:23:15;;;;;;;17.85;15.48;;;9.60;79.80;;;;;;5008864;28;20034;-79
2024/03/06 03:25:43;;;;;;;17.10;14.82;;;9.60;79.90;;;;;;5008188;28;20021;-79
2024/03/06 03:28:09;;;;;;;16.98;13.65;;;9.60;79.80;;;;;;5007081;28;20026;-80
2024/03/06 03:30:35;;;;;;;17.33;15.35;;;9.60;79.90;;;;;;5016096;28;20068;-80
2024/03/06 03:33:01;;;;;;;17.95;15.57;;;9.50;79.80;;;;;;5011792;28;20068;-80
2024/03/06 03:35:27;;;;;;;16.58;14.57;;;9.50;79.80;;;;;;5025578;28;20033;-79
2024/03/06 03:37:55;;;;;;;17.13;14.80;;;9.50;79.70;;;;;;5030174;28;20037;-95
2024/03/06 03:40:21;;;;;;;15.98;14.27;;;9.50;79.70;;;;;;5030115;28;20026;-94
2024/03/06 03:42:47;;;;;;;16.88;14.40;;;9.50;79.70;;;;;;4993202;28;20026;-94
2024/03/06 03:45:13;;;;;;;18.02;14.77;;;9.40;79.70;;;;;;4996910;28;20118;-79
2024/03/06 03:47:42;;;;;;;16.98;14.25;;;9.40;79.70;;;;;;4999009;28;20045;-87
2024/03/06 03:50:09;;;;;;;15.80;14.15;;;9.40;79.70;;;;;;5007187;28;20042;-80
2024/03/06 03:52:35;;;;;;;17.10;14.07;;;9.40;79.70;;;;;;5004853;28;20057;-94
2024/03/06 03:55:04;;;;;;;16.73;13.73;;;9.40;80.40;;;;;;5018403;28;20038;-80
2024/03/06 03:57:30;;;;;;;16.02;13.63;;;9.40;79.80;;;;;;5006533;28;20092;-79
2024/03/06 03:59:56;;;;;;;16.48;14.32;;;9.40;79.80;;;;;;5026386;28;20025;-94
2024/03/06 04:02:22;;;;;;;16.60;14.38;;;9.30;79.70;;;;;;5005825;28;20034;-85
2024/03/06 04:04:48;;;;;;;17.38;14.50;;;9.30;79.70;;;;;;5024643;28;20085;-80
2024/03/06 04:07:16;;;;;;;16.42;13.80;;;9.30;79.80;;;;;;5008215;28;20116;-79
2024/03/06 04:09:41;;;;;;;15.93;13.90;;;9.20;79.80;;;;;;5049255;28;20022;-87
2024/03/06 04:12:07;;;;;;;15.10;13.48;;;9.20;79.70;;;;;;5046446;28;20045;-79
2024/03/06 04:14:33;;;;;;;15.63;13.55;;;9.20;79.70;;;;;;5030965;28;20037;-80
2024/03/06 04:16:59;;;;;;;15.85;13.43;;;9.20;79.80;;;;;;5004105;28;20014;-95
2024/03/06 04:19:24;;;;;;;15.20;13.35;;;9.20;79.80;;;;;;5052581;28;20030;-79
2024/03/06 04:21:50;;;;;;;15.77;13.95;;;9.20;79.80;;;;;;5037031;28;20037;-96
2024/03/06 04:24:16;;;;;;;16.02;13.23;;;9.10;79.70;;;;;;5016267;28;20113;-96
2024/03/06 04:26:42;;;;;;;15.98;13.27;;;9.10;79.70;;;;;;5023769;28;20029;-82
2024/03/06 04:29:09;;;;;;;16.52;14.32;;;9.10;79.70;;;;;;5030762;28;20117;-87
2024/03/06 04:31:36;;;;;;;16.50;13.85;;;9.10;79.70;;;;;;5005296;28;20076;-79
2024/03/06 04:34:02;;;;;;;15.32;12.93;;;9.10;79.70;;;;;;5025736;28;20052;-88
2024/03/06 04:36:27;;;;;;;15.48;13.15;;;9.10;80.40;;;;;;5014373;28;20034;-87
2024/03/06 04:38:53;;;;;;;16.35;13.13;;;9.00;79.70;;;;;;5021169;28;20478;-80
2024/03/06 04:41:19;;;;;;;16.13;14.10;;;9.00;79.70;;;;;;5046091;28;20022;-87
2024/03/06 04:43:45;;;;;;;16.70;13.20;;;9.00;79.70;;;;;;5006813;28;20489;-80
2024/03/06 04:46:14;;;;;;;14.43;12.93;;;9.00;80.30;;;;;;5034626;28;20033;-80
2024/03/06 04:48:40;;;;;;;16.92;13.48;;;9.00;79.70;;;;;;5047937;28;20083;-94
2024/03/06 04:51:06;;;;;;;16.90;13.52;;;9.00;79.80;;;;;;5030285;28;20124;-79
2024/03/06 04:53:31;;;;;;;15.27;13.43;;;8.90;79.70;;;;;;5000168;28;20053;-80
2024/03/06 04:55:57;;;;;;;16.88;13.32;;;8.90;79.80;;;;;;4995244;28;20454;-87
2024/03/06 04:58:23;;;;;;;16.27;13.93;;;8.90;79.80;;;;;;5012688;28;20040;-80
2024/03/06 05:00:49;;;;;;;15.00;13.40;;;8.90;79.80;;;;;;5015165;28;20022;-88
2024/03/06 05:03:15;;;;;;;17.52;13.68;;;8.90;79.80;;;;;;5030951;28;20025;-88
2024/03/06 05:05:44;;;;;;;15.15;13.00;;;8.80;79.70;;;;;;5032524;28;20026;-88
2024/03/06 05:08:10;;;;;;;15.45;13.70;;;8.80;79.80;;;;;;5027940;28;20034;-79
2024/03/06 05:10:36;;;;;;;16.25;13.93;;;8.80;79.80;;;;;;5028757;28;20026;-93
2024/03/06 05:13:02;;;;;;;17.55;13.80;;;8.80;79.80;;;;;;5001217;28;20383;-88
2024/03/06 05:15:28;;;;;;;17.60;14.23;;;8.80;79.70;;;;;;5028342;28;20042;-87
2024/03/06 05:17:55;;;;;;;16.25;13.75;;;8.80;79.70;;;;;;5040201;28;20514;-88
2024/03/06 05:20:24;;;;;;;15.80;13.50;;;8.80;79.70;;;;;;5012762;28;20405;-79
2024/03/06 05:22:50;;;;;;;15.75;13.43;;;8.80;79.80;;;;;;5016549;28;20045;-95
2024/03/06 05:25:16;;;;;;;15.73;13.15;;;8.70;79.70;;;;;;5028477;28;20116;-88
2024/03/06 05:27:44;;;;;;;16.05;13.77;;;8.70;79.70;;;;;;5000302;28;20358;-80
2024/03/06 05:30:10;;;;;;;15.65;13.38;;;8.70;79.80;;;;;;5028841;28;20050;-87
2024/03/06 05:32:36;;;;;;;14.80;13.23;;;8.70;79.80;;;;;;5029756;28;20125;-80
2024/03/06 05:35:03;;;;;;;15.82;13.90;;;8.70;79.80;;;;;;5037280;28;20050;-79
2024/03/06 05:37:29;;;;;;;15.68;13.23;;;8.60;79.80;;;;;;5002949;28;20025;-79
2024/03/06 05:39:55;;;;;;;17.13;13.93;;;8.60;79.80;;;;;;5030018;28;20056;-79
2024/03/06 05:42:21;;;;;;;15.27;13.30;;;8.60;79.80;;;;;;5012506;28;20080;-79
2024/03/06 05:44:48;;;;;;;15.93;13.70;;;8.60;79.80;;;;;;5011144;28;20509;-78
2024/03/06 05:47:14;;;;;;;15.60;13.13;;;8.60;79.80;;;;;;5013423;28;20058;-80
2024/03/06 05:49:40;;;;;;;16.52;13.73;;;8.50;79.70;;;;;;5028848;28;20061;-80
2024/03/06 05:52:06;;;;;;;18.08;14.32;;;8.60;79.80;;;;;;5000951;28;20076;-87
2024/03/06 05:54:33;;;;;;;16.10;13.82;;;8.50;79.80;;;;;;4996614;28;20017;-80
2024/03/06 05:56:59;;;;;;;15.95;13.60;;;8.50;79.80;;;;;;5002637;28;20018;-79
2024/03/06 05:59:26;;;;;;;15.77;13.00;;;8.50;79.80;;;;;;5015006;28;20110;-94
2024/03/06 06:01:52;;;;;;;15.93;13.68;;;8.50;79.80;;;;;;5002522;28;20026;-79
2024/03/06 06:04:18;;;;;;;14.85;13.25;;;8.50;79.80;;;;;;5023497;28;20121;-79
2024/03/06 06:07:06;;;;;;;17.60;14.15;;;8.50;79.80;;;;;;5029796;28;20025;-79
2024/03/06 06:09:33;;;;;;;14.90;13.18;;;8.50;79.90;;;;;;5050975;28;20068;-78
2024/03/06 06:11:59;;;;;;;15.23;13.25;;;8.40;79.80;;;;;;5026853;28;20048;-80
2024/03/06 06:14:27;;;;;;;15.43;13.30;;;8.40;79.80;;;;;;5018634;28;20130;-90
2024/03/06 06:16:53;;;;;;;14.82;13.15;;;8.40;79.80;;;;;;5047300;28;20093;-96
2024/03/06 06:19:18;;;;;;;14.32;12.55;;;8.40;79.80;;;;;;5031107;28;20020;-78
2024/03/06 06:21:44;;;;;;;15.02;13.43;;;8.40;79.80;;;;;;5029234;28;20029;-80
2024/03/06 06:24:10;;;;;;;15.20;13.13;;;8.40;79.90;;;;;;5036801;28;20150;-80
2024/03/06 06:26:36;;;;;;;13.98;12.38;;;8.40;79.80;;;;;;5032251;28;20029;-84
2024/03/06 06:29:02;;;;;;;14.27;12.70;;;8.30;79.80;;;;;;5032950;28;20120;-86
2024/03/06 06:31:28;;;;;;;14.88;12.73;;;8.30;79.80;;;;;;5031880;28;20116;-78
2024/03/06 06:33:54;;;;;;;15.32;12.88;;;8.30;79.80;;;;;;5008991;28;20067;-85
2024/03/06 06:36:20;;;;;;;15.40;13.55;;;8.30;79.80;;;;;;5033616;28;20127;-79
2024/03/06 06:38:49;;;;;;;15.15;13.55;;;8.30;79.90;;;;;;5050816;28;20059;-86
2024/03/06 06:41:17;;;;;;;14.05;12.63;;;8.30;79.90;;;;;;5041982;28;20049;-93
2024/03/06 06:43:42;;;;;;;15.50;12.80;;;8.30;79.80;;;;;;5048705;28;20112;-80
2024/03/06 06:46:08;;;;;;;14.38;12.82;;;8.30;79.80;;;;;;5009833;28;20124;-92
2024/03/06 06:48:34;;;;;;;14.02;12.23;;;8.30;79.80;;;;;;5034732;28;20127;-86
2024/03/06 06:51:02;;;;;;;14.02;12.55;;;8.30;79.80;;;;;;5001855;28;20033;-91
2024/03/06 06:53:31;;;;;;;13.80;12.30;;;8.30;79.90;;;;;;5025289;28;20081;-80
2024/03/06 06:56:03;;;;;;;14.63;12.75;;;8.30;79.90;;;;;;5002819;28;20037;-87
2024/03/06 06:58:29;;;;;;;13.95;12.40;;;8.30;80.00;;;;;;5027608;28;20436;-92
2024/03/06 07:00:55;;;;;;;13.77;12.25;;;8.20;79.80;;;;;;5054436;28;20101;-93
2024/03/06 07:03:23;;;;;;;13.77;12.20;;;8.30;79.90;;;;;;5036774;28;20037;-94
2024/03/06 07:05:50;;;;;;;14.90;13.00;;;8.30;79.90;;;;;;5041330;28;20504;-78
2024/03/06 07:08:16;;;;;;;14.43;12.93;;;8.30;79.90;;;;;;5007919;28;20164;-84
2024/03/06 07:10:42;;;;;;;14.73;13.10;;;8.20;79.90;;;;;;5011115;28;20121;-87
2024/03/06 07:13:08;;;;;;;14.18;12.63;;;8.30;80.00;;;;;;5027372;28;20177;-89
2024/03/06 07:15:33;;;;;;;13.70;12.18;;;8.20;79.90;;;;;;5028277;28;20504;-79
2024/03/06 07:17:59;;;;;;;14.23;12.70;;;8.20;79.90;;;;;;5011934;28;20165;-78
2024/03/06 07:20:26;;;;;;;14.27;12.77;;;8.20;79.90;;;;;;5022258;28;20028;-78
2024/03/06 07:22:52;;;;;;;14.13;12.57;;;8.20;80.00;;;;;;5037376;28;20022;-80
2024/03/06 07:25:18;;;;;;;14.65;13.15;;;8.20;79.90;;;;;;5023723;28;20041;-79
2024/03/06 07:27:43;;;;;;;13.40;12.00;;;8.30;80.00;;;;;;5024590;28;20101;-78
2024/03/06 07:30:11;;;;;;;13.95;12.50;;;8.20;79.90;;;;;;5043918;28;20022;-80
2024/03/06 07:32:37;;;;;;;14.02;12.60;;;8.30;80.00;;;;;;5026731;28;20013;-96
2024/03/06 07:35:05;;;;;;;14.43;12.93;;;8.20;80.00;;;;;;5443715;22;20023;-93
2024/03/06 07:37:33;;;;;;;14.18;12.68;;;8.30;80.10;;;;;;4974753;28;20050;-84
2024/03/06 07:39:59;;;;;;;14.82;12.77;;;8.30;80.00;;;;;;4955197;28;20033;-80
2024/03/06 07:42:26;;;;;;;14.57;12.90;;;8.30;80.00;;;;;;4950604;28;20137;-85
2024/03/06 07:44:51;;;;;;;14.02;12.52;;;8.30;80.70;;;;;;4965617;28;20034;-80
2024/03/06 07:47:17;;;;;;;15.35;13.18;;;8.30;80.10;;;;;;5253380;23;20509;-78
2024/03/06 07:49:44;;;;;;;14.43;12.82;;;8.30;80.10;;;;;;5015322;28;20394;-92
2024/03/06 07:52:10;;;;;;;15.77;14.07;;;8.30;80.10;;;;;;5024855;28;20486;-90
2024/03/06 07:54:36;;;;;;;15.65;13.57;;;8.30;80.20;;;;;;5004808;28;20439;-79
2024/03/06 07:57:02;;;;;;;17.02;14.18;;;8.30;80.20;;;;;;5011090;28;20037;-86
2024/03/06 07:59:29;;;;;;;16.33;14.00;;;8.30;80.20;;;;;;5010682;28;20075;-79
2024/03/06 08:01:55;;;;;;;15.65;13.93;;;8.30;80.20;;;;;;4999033;28;20026;-78
2024/03/06 08:04:23;;;;;;;14.77;13.20;;;8.30;80.20;;;;;;5005847;28;20235;-79
2024/03/06 08:06:49;;;;;;;16.40;14.10;;;8.40;80.30;;;;;;5010264;28;20367;-79
2024/03/06 08:09:16;;;;;;;17.30;14.43;;;8.40;80.30;;;;;;5008486;28;20033;-83
2024/03/06 08:11:42;;;;;;;18.30;15.43;;;8.40;80.30;;;;;;5002656;28;20107;-83
2024/03/06 08:14:08;;;;;;;17.50;14.48;;;8.40;80.30;;;;;;5000386;28;20022;-90
2024/03/06 08:16:34;;;;;;;17.85;14.82;;;8.40;80.30;;;;;;5012557;28;20117;-90
2024/03/06 08:19:00;;;;;;;17.08;14.52;;;8.40;80.30;;;;;;5030130;28;20030;-80
2024/03/06 08:21:26;;;;;;;18.13;15.20;;;8.40;80.30;;;;;;5007489;28;20034;-79
2024/03/06 08:23:52;;;;;;;16.50;14.35;;;8.50;80.40;;;;;;5011922;28;20033;-78
2024/03/06 08:26:18;;;;;;;16.42;14.02;;;8.50;80.30;;;;;;4990248;28;20058;-87
2024/03/06 08:28:44;;;;;;;18.95;14.75;;;8.50;80.40;;;;;;5000329;28;20113;-82
2024/03/06 08:31:10;;;;;;;19.00;15.75;;;8.50;81.00;;;;;;4995224;28;20613;-79
2024/03/06 08:33:37;;;;;;;17.05;14.68;;;8.50;80.40;;;;;;5011973;28;20022;-80
2024/03/06 08:36:03;;;;;;;17.35;14.40;;;8.50;80.40;;;;;;4991247;28;20029;-86
2024/03/06 08:38:29;;;;;;;17.35;14.82;;;8.60;80.40;;;;;;5011505;28;20143;-79
2024/03/06 08:40:55;;;;;;;17.27;14.70;;;8.60;80.40;;;;;;4993200;28;20058;-78
2024/03/06 08:43:21;;;;;;;16.80;13.98;;;8.60;80.40;;;;;;5000133;28;20038;-77
2024/03/06 08:45:46;;;;;;;17.08;13.95;;;8.60;80.40;;;;;;4997151;28;20124;-85
2024/03/06 08:48:12;;;;;;;17.98;14.75;;;8.70;80.40;;;;;;4988755;28;20132;-80
2024/03/06 08:50:38;;;;;;;17.73;14.77;;;8.70;80.40;;;;;;4991908;28;20022;-88
2024/03/06 08:53:09;;;;;;;17.95;14.68;;;8.70;80.40;;;;;;5011467;28;20026;-79
2024/03/06 08:55:35;;;;;;;18.05;14.25;;;8.80;80.50;;;;;;4996017;28;20048;-78
2024/03/06 08:58:01;;;;;;;17.67;14.35;;;8.80;80.40;;;;;;5014341;28;20109;-88
2024/03/06 09:00:27;;;;;;;19.58;15.63;;;8.80;80.40;;;;;;4992161;28;20027;-77
2024/03/06 09:02:53;;;;;;;18.80;14.57;;;8.80;80.40;;;;;;5007179;28;20194;-89
2024/03/06 09:05:25;;;;;;;18.33;14.88;;;8.90;80.40;;;;;;4995139;28;20095;-88
2024/03/06 09:07:51;;;;;;;17.50;14.57;;;8.80;80.40;;;;;;4992459;28;20038;-87
2024/03/06 09:10:21;;;;;;;17.10;13.95;;;8.90;80.70;;;;;;4995652;28;20501;-86
2024/03/06 09:12:46;;;;;;;18.35;14.68;;;8.90;80.40;;;;;;5014732;28;20061;-89
2024/03/06 09:15:14;;;;;;;18.38;15.10;;;8.90;80.40;;;;;;4994757;28;20077;-82
2024/03/06 09:17:40;;;;;;;17.90;14.27;;;8.90;80.40;;;;;;4996931;28;20037;-80
2024/03/06 09:20:12;;;;;;;18.10;15.00;;;9.00;80.40;;;;;;4996754;28;20021;-87
2024/03/06 09:22:39;;;;;;;18.23;14.27;;;9.00;80.40;;;;;;5003864;28;20040;-90
2024/03/06 09:25:06;;;;;;;18.23;14.60;;;9.00;80.30;;;;;;5010493;28;20033;-90
2024/03/06 09:27:32;;;;;;;18.65;14.98;;;9.00;80.40;;;;;;4990173;28;20030;-91
2024/03/06 09:29:57;;;;;;;18.45;14.70;;;9.10;80.40;;;;;;5007011;28;20026;-94
2024/03/06 09:32:25;;;;;;;20.90;15.07;;;9.10;81.00;;;;;;4998297;28;20160;-80
2024/03/06 09:34:50;;;;;;;20.40;14.43;;;9.10;80.40;;;;;;5002268;28;20030;-88
2024/03/06 09:37:16;;;;;;;18.30;14.68;;;9.10;80.40;;;;;;4987309;28;20109;-92
2024/03/06 09:39:42;;;;;;;19.30;15.05;;;9.10;80.40;;;;;;4993979;28;20033;-91
2024/03/06 09:42:08;;;;;;;18.85;14.75;;;9.20;80.50;;;;;;4996327;28;20034;-91
2024/03/06 09:44:34;;;;;;;19.02;15.10;;;9.20;80.50;;;;;;4995265;28;20026;-92
2024/03/06 09:47:05;;;;;;;19.02;14.63;;;9.20;80.40;;;;;;4995483;28;20048;-77
2024/03/06 09:49:31;;;;;;;19.38;14.57;;;9.30;80.40;;;;;;5007403;28;20034;-92
2024/03/06 09:51:58;;;;;;;21.48;15.57;;;9.30;80.40;;;;;;5000998;28;20115;-78
2024/03/06 09:54:26;;;;;;;19.60;15.23;;;9.30;80.30;;;;;;5000090;28;20034;-87
2024/03/06 09:56:54;;;;;;;19.55;14.63;;;9.40;80.30;;;;;;5011233;28;20393;-90
2024/03/06 09:59:20;;;;;;;19.85;15.00;;;9.40;80.30;;;;;;5008895;28;20026;-77
2024/03/06 10:01:57;;;;;;;19.58;14.00;;;9.40;80.20;;;;;;5011625;28;20108;-78
2024/03/06 10:04:27;;;;;;;19.95;15.00;;;9.40;80.20;;;;;;5015462;28;20044;-78
2024/03/06 10:06:57;;;;;;;19.27;14.75;;;9.50;80.20;;;;;;4999749;28;20085;-85
2024/03/06 10:09:23;;;;;;;20.25;14.63;;;9.50;80.10;;;;;;4987336;28;20036;-78
2024/03/06 10:11:52;;;;;;;20.55;15.30;;;9.60;80.10;;;;;;4994525;28;20053;-77
2024/03/06 10:14:18;;;;;;;19.30;14.60;;;9.60;80.00;;;;;;5004775;28;20031;-77
2024/03/06 10:17:00;;;;;;;20.17;14.80;;;9.60;80.00;;;;;;5007224;28;20025;-77
2024/03/06 10:19:29;;;;;;;21.08;15.07;;;9.70;80.00;;;;;;5010735;28;20503;-77
2024/03/06 10:21:58;;;;;;;21.33;15.65;;;9.70;80.00;;;;;;5004138;28;20026;-89
2024/03/06 10:24:28;;;;;;;19.85;14.65;;;9.70;80.50;;;;;;4991014;28;20057;-78
2024/03/06 10:26:59;;;;;;;21.35;15.23;;;9.70;79.90;;;;;;5010672;28;20117;-79
2024/03/06 10:29:26;;;;;;;19.63;14.43;;;9.80;79.90;;;;;;4991001;28;20019;-89
2024/03/06 10:31:57;;;;;;;22.10;16.15;;;9.80;79.90;;;;;;4989412;28;20052;-91
2024/03/06 10:34:25;;;;;;;20.98;15.23;;;9.80;79.90;;;;;;5003640;28;20393;-79
2024/03/06 10:36:59;;;;;;;21.27;15.65;;;9.80;79.80;;;;;;5011146;28;20021;-79
2024/03/06 10:39:25;;;;;;;22.77;16.05;;;9.90;79.90;;;;;;4994345;28;20490;-94
2024/03/06 10:42:12;;;;;;;20.10;15.10;;;9.80;79.90;;;;;;4993655;28;20382;-86
2024/03/06 10:44:48;;;;;;;21.25;15.43;;;9.90;79.90;;;;;;4993905;28;20532;-79
2024/03/06 10:47:15;;;;;;;20.38;15.82;;;10.00;79.90;;;;;;5006831;28;20049;-79
2024/03/06 10:49:42;;;;;;;21.23;15.35;;;10.00;79.80;;;;;;5007282;28;20053;-80
2024/03/06 10:52:09;;;;;;;22.58;16.85;;;10.00;79.80;;;;;;5018590;28;20378;-79
2024/03/06 10:54:38;;;;;;;21.27;14.88;;;10.00;79.80;;;;;;4991567;28;20025;-88
2024/03/06 10:57:05;;;;;;;20.80;15.45;;;10.00;79.70;;;;;;5008846;28;20453;-78
2024/03/06 10:59:31;;;;;;;22.00;16.13;;;10.10;79.80;;;;;;4999070;28;20034;-92
2024/03/06 11:02:00;;;;;;;21.27;15.75;;;10.10;79.80;;;;;;4992328;28;20092;-78
2024/03/06 11:04:33;;;;;;;21.73;15.85;;;10.10;79.80;;;;;;5002348;28;20091;-79
2024/03/06 11:07:02;;;;;;;23.42;16.85;;;10.20;79.80;;;;;;5004756;28;20105;-88
2024/03/06 11:09:28;;;;;;;22.15;15.90;;;10.20;79.80;;;;;;4988961;28;20025;-87
2024/03/06 11:11:57;;;;;;;23.45;16.35;;;10.20;79.80;;;;;;4995394;28;20046;-79
2024/03/06 11:14:24;;;;;;;21.52;16.45;;;10.20;79.80;;;;;;4994799;28;20498;-78
2024/03/06 11:17:04;;;;;;;22.15;16.10;;;10.30;79.80;;;;;;4990950;28;20033;-78
2024/03/06 11:19:53;;;;;;;22.35;16.13;;;10.30;79.80;;;;;;5018501;28;20036;-88
2024/03/06 11:22:18;;;;;;;21.10;15.80;;;10.30;79.70;;;;;;5007117;28;20028;-89
2024/03/06 11:24:44;;;;;;;23.77;16.98;;;10.30;79.70;;;;;;5009985;28;20108;-89
2024/03/06 11:27:15;;;;;;;23.52;16.95;;;10.40;79.80;;;;;;5005379;28;20037;-80
2024/03/06 11:30:16;;;;;;;22.90;16.63;;;10.40;79.70;;;;;;4996089;28;20034;-80
2024/03/06 11:33:00;;;;;;;19.55;15.52;;;10.50;79.70;;;;;;4994221;28;20031;-88
2024/03/06 11:35:30;;;;;;;22.50;16.35;;;10.50;79.70;;;;;;4988793;28;20026;-93
2024/03/06 11:37:56;;;;;;;22.42;15.65;;;10.50;79.70;;;;;;4998866;28;20049;-80
2024/03/06 11:40:25;;;;;;;21.60;15.57;;;10.50;79.70;;;;;;4994392;28;20099;-79
2024/03/06 11:42:52;;;;;;;21.35;16.27;;;10.60;79.70;;;;;;5012611;28;20021;-93
2024/03/06 11:45:24;;;;;;;23.73;17.00;;;10.60;79.60;;;;;;4987028;28;20030;-78
2024/03/06 11:48:01;;;;;;;22.80;16.45;;;10.60;80.20;;;;;;5008404;28;20045;-88
2024/03/06 11:50:31;;;;;;;22.58;16.38;;;10.70;79.60;;;;;;5007585;28;20034;-80
2024/03/06 11:52:57;;;;;;;22.38;16.55;;;10.70;79.60;;;;;;4991884;28;20054;-78
2024/03/06 11:55:26;;;;;;;22.30;16.58;;;10.80;79.60;;;;;;5016939;28;20037;-93
2024/03/06 11:57:53;;;;;;;23.77;17.15;;;10.80;79.60;;;;;;4993122;28;20034;-79
2024/03/06 12:00:23;;;;;;;22.75;16.83;;;10.80;79.50;;;;;;5005828;28;20076;-79
2024/03/06 12:02:50;;;;;;;22.02;16.70;;;10.90;79.60;;;;;;4993024;28;20034;-79
2024/03/06 12:05:17;;;;;;;22.33;16.55;;;10.90;79.50;;;;;;4993427;28;20029;-81
2024/03/06 12:08:03;;;;;;;23.60;16.95;;;11.00;79.60;;;;;;4988189;28;20026;-80
2024/03/06 12:10:30;;;;;;;23.17;16.58;;;11.00;80.10;;;;;;4999568;28;20057;-90
2024/03/06 12:12:56;;;;;;;23.42;17.35;;;11.00;79.40;;;;;;4980453;28;20022;-79
2024/03/06 12:15:29;;;;;;;23.67;17.30;;;11.10;79.40;;;;;;5001651;28;20050;-86
2024/03/06 12:17:55;;;;;;;25.45;17.98;;;11.10;79.50;;;;;;4980098;28;20053;-80
2024/03/06 12:20:24;;;;;;;23.90;16.42;;;11.20;79.50;;;;;;4987537;28;20022;-80
2024/03/06 12:22:55;;;;;;;22.13;16.75;;;11.20;79.50;;;;;;4985791;28;20169;-80
2024/03/06 12:25:26;;;;;;;23.48;16.02;;;11.20;79.40;;;;;;5011141;28;20535;-90
2024/03/06 12:27:55;;;;;;;22.73;16.48;;;11.30;79.40;;;;;;4996601;28;20477;-80
2024/03/06 12:30:22;;;;;;;21.13;16.42;;;11.30;79.40;;;;;;5002371;28;20030;-91
2024/03/06 12:32:59;;;;;;;23.13;17.02;;;11.30;79.30;;;;;;5013383;28;20037;-79